Time;durP1;ratioP1;P1;durP2;ratioP2;P2;SDS_P1;SDS_P2;PMS_P1;PMS_P2;Temp;Humidity;BMP_temperature;BMP_pressure;BME280_temperature;BME280_humidity;BME280_pressure;Samples;Min_cycle;Max_cycle;Signal;HPM_P1;HPM_P2
2023/09/30 00:01:19;;;;;;;3.67;2.97;;;;;;;-146.24;83.94;46974.97;4951831;29;20310;-85
2023/09/30 00:03:47;;;;;;;3.23;2.93;;;;;;;-146.24;83.50;46973.06;4951006;28;20238;-84
2023/09/30 00:06:14;;;;;;;3.07;2.53;;;;;;;-146.24;82.70;46961.53;4950941;29;20304;-85
2023/09/30 00:08:43;;;;;;;2.80;2.33;;;;;;;-146.24;82.32;46963.47;4951151;29;20227;-84
2023/09/30 00:11:12;;;;;;;2.77;2.47;;;;;;;-146.24;82.51;46986.50;4950717;29;20195;-85
2023/09/30 00:13:39;;;;;;;2.97;2.67;;;;;;;-146.24;82.74;46982.66;4951366;29;20219;-83
2023/09/30 00:16:06;;;;;;;2.70;2.50;;;;;;;-146.24;82.63;46971.16;4950264;28;20278;-85
2023/09/30 00:18:34;;;;;;;4.30;2.50;;;;;;;-146.24;82.03;47029.94;4950409;29;20242;-83
2023/09/30 00:21:01;;;;;;;3.00;2.73;;;;;;;-146.24;82.10;46967.31;4955125;28;20203;-84
2023/09/30 00:23:28;;;;;;;3.53;2.60;;;;;;;-146.24;82.51;46969.22;4970221;28;20206;-84
2023/09/30 00:25:55;;;;;;;5.70;3.07;;;;;;;-146.24;82.97;46948.13;4973319;28;20237;-85
2023/09/30 00:28:24;;;;;;;3.20;2.87;;;;;;;-146.24;83.11;46969.22;4974234;28;20686;-83
2023/09/30 00:30:51;;;;;;;3.43;2.73;;;;;;;-146.24;83.00;46969.22;4974538;28;20211;-84
2023/09/30 00:33:18;;;;;;;4.80;2.63;;;;;;;-146.24;82.48;46963.47;4973485;28;20365;-84
2023/09/30 00:35:47;;;;;;;5.97;3.17;;;;;;;-146.24;82.06;47013.34;4975193;28;20215;-85
2023/09/30 00:38:14;;;;;;;3.53;2.67;;;;;;;-146.24;82.68;46923.19;4973664;28;20217;-85
2023/09/30 00:40:48;;;;;;;4.07;2.90;;;;;;;-146.24;83.47;46942.38;4974055;28;20211;-83
2023/09/30 00:43:19;;;;;;;2.83;2.57;;;;;;;-146.24;83.56;46917.41;4973667;28;20245;-85
2023/09/30 00:45:49;;;;;;;2.83;2.70;;;;;;;-146.24;83.75;46982.66;4974113;28;20264;-83
2023/09/30 00:48:17;;;;;;;3.77;2.33;;;;;;;-146.24;83.64;46959.63;4973038;28;20213;-83
2023/09/30 00:50:45;;;;;;;2.83;2.60;;;;;;;-146.24;83.80;47024.88;4973418;28;20205;-82
2023/09/30 00:53:12;;;;;;;2.37;2.27;;;;;;;-146.24;83.81;46973.06;4973037;28;20202;-84
2023/09/30 00:55:39;;;;;;;2.90;2.70;;;;;;;-146.24;83.73;46967.31;4973756;28;20281;-85
2023/09/30 00:58:07;;;;;;;3.47;2.80;;;;;;;-146.24;85.14;46955.78;4974039;28;20235;-83
2023/09/30 01:00:34;;;;;;;4.73;3.00;;;;;;;-146.24;86.02;46990.31;4973823;28;20239;-85
2023/09/30 01:03:05;;;;;;;2.55;2.35;;;;;;;-146.24;84.74;46950.03;4972704;28;20616;-84
2023/09/30 01:05:31;;;;;;;3.80;2.72;;;;;;;-146.24;83.98;46980.72;4973045;28;20231;-85
2023/09/30 01:07:59;;;;;;;2.20;2.10;;;;;;;-146.24;84.18;46951.97;4973045;28;20222;-85
2023/09/30 01:10:27;;;;;;;3.53;2.58;;;;;;;-146.24;84.70;46948.13;4972808;28;20206;-85
2023/09/30 01:12:55;;;;;;;4.17;2.50;;;;;;;-146.24;84.36;46959.63;4961637;28;20447;-84
2023/09/30 01:15:22;;;;;;;2.88;2.28;;;;;;;-146.24;83.78;47040.22;4952197;28;20221;-85
2023/09/30 01:17:49;;;;;;;6.05;2.67;;;;;;;-146.24;84.14;47028.69;4953268;29;20232;-84
2023/09/30 01:20:21;;;;;;;3.53;2.33;;;;;;;-146.24;82.59;46967.31;4953744;29;20243;-86
2023/09/30 01:22:50;;;;;;;6.88;2.70;;;;;;;-146.24;82.89;46978.81;4954457;29;20655;-85
2023/09/30 01:25:17;;;;;;;2.28;2.08;;;;;;;-146.24;84.41;46944.28;4953773;29;20243;-82
2023/09/30 01:27:44;;;;;;;2.78;2.58;;;;;;;-146.24;84.01;46982.66;4955010;29;20227;-84
2023/09/30 01:30:13;;;;;;;4.72;3.05;;;;;;;-146.24;83.62;46976.91;4955563;29;20378;-87
2023/09/30 01:32:41;;;;;;;4.50;2.38;;;;;;;-146.24;83.59;46971.16;4953008;29;20214;-85
2023/09/30 01:35:09;;;;;;;7.20;2.55;;;;;;;-146.24;83.89;46980.72;4953954;28;20305;-84
2023/09/30 01:37:37;;;;;;;3.92;2.45;;;;;;;-146.24;83.95;46969.22;4953697;29;20219;-85
2023/09/30 01:40:10;;;;;;;2.30;2.20;;;;;;;-146.24;83.45;46948.13;4953222;29;20714;-85
2023/09/30 01:42:38;;;;;;;6.88;2.50;;;;;;;-146.24;83.53;46940.44;4953666;29;20656;-84
2023/09/30 01:45:06;;;;;;;3.00;2.70;;;;;;;-146.24;82.81;46986.50;4953919;29;20248;-85
2023/09/30 01:47:33;;;;;;;2.70;2.55;;;;;;;-146.24;83.75;46963.47;4953605;29;20224;-84
2023/09/30 01:50:00;;;;;;;3.22;3.00;;;;;;;-146.24;83.98;47001.84;4954270;29;20205;-83
2023/09/30 01:52:28;;;;;;;115.90;50.22;;;;;;;-146.24;85.12;46955.78;4962481;28;20613;-83
2023/09/30 01:54:56;;;;;;;56.03;23.75;;;;;;;-146.24;85.24;46978.81;4972492;28;20663;-85
2023/09/30 01:57:24;;;;;;;5.05;3.95;;;;;;;-146.24;84.51;47003.75;4972522;28;20573;-85
2023/09/30 01:59:51;;;;;;;2.25;2.15;;;;;;;-146.24;83.98;46969.22;4972777;28;20284;-84
2023/09/30 02:02:18;;;;;;;3.20;2.90;;;;;;;-146.24;84.08;46999.91;4972661;28;20217;-85
2023/09/30 02:04:46;;;;;;;2.95;2.75;;;;;;;-146.24;83.25;47017.19;4972949;28;20240;-85
2023/09/30 02:07:13;;;;;;;7.03;2.85;;;;;;;-146.24;84.08;46951.97;4971659;28;20236;-84
2023/09/30 02:09:40;;;;;;;2.90;2.70;;;;;;;-146.24;83.66;46967.31;4972684;28;20314;-85
2023/09/30 02:12:09;;;;;;;2.97;2.47;;;;;;;-146.24;83.57;46946.19;4973392;28;20291;-84
2023/09/30 02:14:39;;;;;;;11.88;2.58;;;;;;;-146.24;83.65;46982.66;4974546;28;20227;-85
2023/09/30 02:17:06;;;;;;;2.78;2.60;;;;;;;-146.24;83.85;46998.00;4977241;28;20209;-84
2023/09/30 02:19:33;;;;;;;3.22;2.90;;;;;;;-146.24;82.44;46959.63;4981853;28;20200;-84
2023/09/30 02:22:00;;;;;;;6.53;2.55;;;;;;;-146.24;80.12;46932.78;4974403;28;20212;-83
2023/09/30 02:24:27;;;;;;;4.88;2.50;;;;;;;-146.24;80.40;46955.78;4970646;28;20211;-83
2023/09/30 02:26:55;;;;;;;2.55;2.30;;;;;;;-146.24;80.68;46986.50;4972887;28;20232;-84
2023/09/30 02:29:22;;;;;;;2.90;2.70;;;;;;;-146.24;82.90;46967.31;4972553;28;20563;-84
2023/09/30 02:31:51;;;;;;;4.72;2.45;;;;;;;-146.24;84.51;46927.00;4972587;28;20211;-84
2023/09/30 02:34:18;;;;;;;3.47;2.63;;;;;;;-146.24;85.82;46953.88;4972632;28;20314;-85
2023/09/30 02:36:45;;;;;;;4.77;2.63;;;;;;;-146.24;86.61;46969.22;4972825;28;20208;-85
2023/09/30 02:39:16;;;;;;;2.47;2.33;;;;;;;-146.24;86.59;46946.19;4972003;28;20208;-85
2023/09/30 02:41:43;;;;;;;3.53;2.40;;;;;;;-146.24;88.20;46978.81;4973073;28;20207;-84
2023/09/30 02:44:10;;;;;;;2.93;2.00;;;;;;;-146.24;88.37;47021.03;4972844;28;20221;-84
2023/09/30 02:46:37;;;;;;;5.77;2.83;;;;;;;-146.24;88.31;46950.03;4971786;28;20445;-84
2023/09/30 02:49:07;;;;;;;4.23;3.20;;;;;;;-146.24;88.60;46965.38;4971799;28;20214;-84
2023/09/30 02:51:34;;;;;;;5.83;2.70;;;;;;;-146.24;87.28;46961.53;4971923;28;20293;-85
2023/09/30 02:54:01;;;;;;;3.73;2.47;;;;;;;-146.24;87.96;47044.06;4972094;28;20548;-85
2023/09/30 02:56:48;;;;;;;6.20;3.40;;;;;;;-146.24;89.60;46948.13;4972175;28;20205;-84
2023/09/30 02:59:16;;;;;;;2.97;2.53;;;;;;;-146.24;90.42;46938.53;4971539;28;20205;-84
2023/09/30 03:01:44;;;;;;;3.40;2.77;;;;;;;-146.24;91.24;46953.88;4970845;28;20292;-84
2023/09/30 03:04:13;;;;;;;5.57;3.00;;;;;;;-146.24;91.79;46946.19;4971088;28;20727;-85
2023/09/30 03:06:40;;;;;;;7.93;3.10;;;;;;;-146.24;92.82;46982.66;4971424;28;20249;-85
2023/09/30 03:09:09;;;;;;;3.37;3.07;;;;;;;-146.24;92.73;46963.47;4971012;28;20206;-84
2023/09/30 03:11:36;;;;;;;3.30;2.67;;;;;;;-145.59;92.41;46913.59;4971379;28;20782;-84
2023/09/30 03:14:04;;;;;;;2.90;2.50;;;;;;;-146.24;91.56;46955.78;4972053;28;20198;-84
2023/09/30 03:16:32;;;;;;;6.90;2.60;;;;;;;-146.24;92.00;47013.34;4972068;28;20212;-83
2023/09/30 03:18:59;;;;;;;4.30;2.50;;;;;;;-146.24;93.84;46953.88;4971780;28;20232;-85
2023/09/30 03:21:28;;;;;;;12.00;3.27;;;;;;;-146.24;93.26;46973.06;4971928;28;20744;-84
2023/09/30 03:23:55;;;;;;;3.10;2.27;;;;;;;-146.24;93.12;46982.66;4971581;28;20623;-84
2023/09/30 03:26:23;;;;;;;3.87;3.20;;;;;;;-146.24;93.23;46938.53;4971438;28;20278;-86
2023/09/30 03:28:51;;;;;;;2.43;2.23;;;;;;;-146.24;92.84;46927.00;4989933;28;20202;-85
2023/09/30 03:31:20;;;;;;;6.60;3.10;;;;;;;-146.24;93.10;46976.91;4993592;28;20202;-86
2023/09/30 03:33:48;;;;;;;3.07;2.60;;;;;;;-146.24;93.40;46951.97;4994859;28;20189;-82
2023/09/30 03:36:18;;;;;;;4.20;2.63;;;;;;;-146.24;94.10;46982.66;4989710;28;20205;-85
2023/09/30 03:38:47;;;;;;;2.97;2.67;;;;;;;-146.24;93.17;46934.69;4987483;28;20245;-85
2023/09/30 03:41:15;;;;;;;2.90;2.33;;;;;;;-146.24;92.20;46944.28;4985413;28;20210;-84
2023/09/30 03:43:43;;;;;;;5.00;3.10;;;;;;;-146.24;92.52;46971.16;4973893;28;20710;-85
2023/09/30 03:46:11;;;;;;;3.67;2.60;;;;;;;-146.24;93.20;46959.63;4970794;28;20296;-84
2023/09/30 03:48:40;;;;;;;3.07;2.87;;;;;;;-146.24;93.90;46961.53;4971182;28;20213;-85
2023/09/30 03:51:13;;;;;;;5.03;3.00;;;;;;;-146.24;94.01;47042.13;4970668;28;20268;-85
2023/09/30 03:53:40;;;;;;;2.37;2.17;;;;;;;-146.24;94.74;46905.91;4970603;28;20612;-85
2023/09/30 03:56:11;;;;;;;5.77;2.80;;;;;;;-146.24;95.32;46946.19;4971129;28;20202;-83
2023/09/30 03:58:38;;;;;;;7.13;2.97;;;;;;;-146.24;95.30;46942.38;4971524;28;20212;-84
2023/09/30 04:01:06;;;;;;;3.30;2.80;;;;;;;-146.24;95.01;46974.97;4969805;28;20206;-85
2023/09/30 04:03:34;;;;;;;2.80;2.60;;;;;;;-146.24;94.43;46965.38;4970777;28;20715;-85
2023/09/30 04:06:03;;;;;;;30.77;15.77;;;;;;;-146.24;95.09;46930.84;4970461;28;20312;-84
2023/09/30 04:08:33;;;;;;;4.83;3.10;;;;;;;-146.24;94.38;46959.63;4970585;28;20202;-85
2023/09/30 04:11:00;;;;;;;2.43;2.33;;;;;;;-146.24;93.37;47009.50;4970185;28;20281;-86
2023/09/30 04:13:29;;;;;;;4.20;2.87;;;;;;;-146.24;94.11;47001.84;4970434;28;20205;-85
2023/09/30 04:15:57;;;;;;;2.70;2.40;;;;;;;-146.24;94.28;46942.38;4971224;28;20287;-85
2023/09/30 04:18:26;;;;;;;3.33;3.10;;;;;;;-146.24;94.11;46936.59;4971042;28;20214;-84
2023/09/30 04:20:53;;;;;;;3.30;2.77;;;;;;;-146.24;94.20;46959.63;4970309;28;20202;-84
2023/09/30 04:23:21;;;;;;;3.90;3.47;;;;;;;-146.24;94.33;46980.72;4970014;28;20214;-84
2023/09/30 04:25:49;;;;;;;8.17;3.50;;;;;;;-146.24;94.33;46957.72;4970833;28;20206;-85
2023/09/30 04:28:20;;;;;;;4.23;3.00;;;;;;;-146.24;94.63;46967.31;4970561;28;20624;-84
2023/09/30 04:30:49;;;;;;;3.43;2.73;;;;;;;-146.24;94.32;46971.16;4970513;28;20212;-84
2023/09/30 04:33:17;;;;;;;4.80;3.13;;;;;;;-146.25;100.00;57403.91;4969931;28;20209;-83
2023/09/30 04:35:45;;;;;;;3.50;3.20;;;;;;;-146.25;100.00;57403.91;4969829;28;20205;-85
2023/09/30 04:38:13;;;;;;;7.53;2.80;;;;;;;-146.25;100.00;57403.91;4969008;28;20327;-83
2023/09/30 04:40:41;;;;;;;8.00;3.10;;;;;;;-146.25;100.00;57403.91;4970528;28;20207;-85
2023/09/30 04:43:08;;;;;;;4.17;3.40;;;;;;;-146.25;100.00;57403.91;4970204;28;20205;-84
2023/09/30 04:45:36;;;;;;;7.17;2.93;;;;;;;-146.25;100.00;57403.91;4970056;28;20361;-83
2023/09/30 04:48:05;;;;;;;4.07;3.67;;;;;;;-146.25;100.00;57403.91;4969833;28;20270;-84
2023/09/30 04:50:33;;;;;;;9.15;3.17;;;;;;;-146.25;100.00;57403.91;4970696;28;20221;-84
2023/09/30 04:52:59;;;;;;;8.80;3.42;;;;;;;-146.25;100.00;57403.91;4970569;28;20228;-83
2023/09/30 04:55:27;;;;;;;4.32;3.55;;;;;;;-146.25;100.00;57403.91;4971040;28;20288;-83
2023/09/30 04:57:55;;;;;;;7.38;4.05;;;;;;;-146.25;100.00;57403.91;4971615;28;20213;-82
2023/09/30 05:00:25;;;;;;;8.35;3.53;;;;;;;-146.25;100.00;57403.91;4972847;28;20199;-82
2023/09/30 05:02:53;;;;;;;12.82;3.78;;;;;;;-146.25;100.00;57403.91;4974249;28;20206;-83
2023/09/30 05:05:22;;;;;;;6.75;4.35;;;;;;;-146.25;100.00;57403.91;4969454;28;20213;-83
2023/09/30 05:07:49;;;;;;;6.45;3.80;;;;;;;-146.25;100.00;57403.91;4969704;28;20249;-83
2023/09/30 05:10:17;;;;;;;4.57;4.10;;;;;;;-146.25;100.00;57403.91;4969906;28;20280;-85
2023/09/30 05:12:46;;;;;;;9.77;3.88;;;;;;;-146.25;100.00;57403.91;4972602;28;20301;-85
2023/09/30 05:15:15;;;;;;;11.20;3.97;;;;;;;-146.25;100.00;57403.91;4972742;28;20342;-85
2023/09/30 05:17:44;;;;;;;15.50;4.63;;;;;;;-146.25;100.00;57403.91;4973290;28;20663;-85
2023/09/30 05:20:12;;;;;;;4.35;3.72;;;;;;;-146.25;100.00;57403.91;4973175;28;20194;-85
2023/09/30 05:22:44;;;;;;;8.27;4.72;;;;;;;-146.25;100.00;57403.91;4972926;28;20205;-85
2023/09/30 05:25:12;;;;;;;8.88;4.32;;;;;;;-146.25;100.00;57403.91;4973882;28;20225;-86
2023/09/30 05:27:42;;;;;;;4.82;3.78;;;;;;;-146.25;100.00;57403.91;4973404;28;20320;-85
2023/09/30 05:30:10;;;;;;;8.93;4.47;;;;;;;-146.25;100.00;57403.91;4973066;28;20309;-86
2023/09/30 05:32:38;;;;;;;15.40;9.93;;;;;;;-146.25;100.00;57403.91;4973465;28;20207;-86
2023/09/30 05:35:12;;;;;;;4.53;4.13;;;;;;;-146.25;100.00;57403.91;4976582;28;20265;-83
2023/09/30 05:37:45;;;;;;;6.40;4.90;;;;;;;-146.25;100.00;57403.91;4984561;28;20202;-85
2023/09/30 05:40:20;;;;;;;11.02;8.35;;;;;;;-146.25;100.00;57403.91;4976621;28;20222;-85
2023/09/30 05:42:47;;;;;;;8.95;4.82;;;;;;;-146.25;100.00;57403.91;4973092;28;20245;-86
2023/09/30 05:45:15;;;;;;;8.50;5.28;;;;;;;-146.25;100.00;57403.91;4973424;28;20206;-85
2023/09/30 05:47:44;;;;;;;6.57;4.47;;;;;;;-146.25;100.00;57403.91;4972860;28;20297;-86
2023/09/30 05:50:14;;;;;;;14.07;7.90;;;;;;;-146.25;100.00;57403.91;4972560;28;20202;-87
2023/09/30 05:52:44;;;;;;;7.90;5.40;;;;;;;-146.25;100.00;57403.91;4972559;28;20708;-86
2023/09/30 05:55:12;;;;;;;7.65;4.32;;;;;;;-146.25;100.00;57403.91;4972819;28;20621;-86
2023/09/30 05:57:40;;;;;;;8.02;6.40;;;;;;;-146.25;100.00;57403.91;4972791;28;20212;-85
2023/09/30 06:00:28;;;;;;;7.13;4.85;;;;;;;-146.25;100.00;57403.91;4972658;28;20202;-86
2023/09/30 06:02:55;;;;;;;8.38;5.28;;;;;;;-146.25;100.00;57403.91;4972585;28;20206;-86
2023/09/30 06:05:23;;;;;;;5.53;4.18;;;;;;;-146.25;100.00;57403.91;4971873;28;20239;-87
2023/09/30 06:07:52;;;;;;;6.43;5.60;;;;;;;-146.25;100.00;57403.91;4973145;28;20583;-87
2023/09/30 06:10:21;;;;;;;7.03;6.20;;;;;;;-146.25;100.00;57403.91;4972480;28;20766;-86
2023/09/30 06:12:49;;;;;;;5.85;4.72;;;;;;;-146.25;100.00;57403.91;4972252;28;20202;-86
2023/09/30 06:15:21;;;;;;;7.00;5.38;;;;;;;-146.25;100.00;57403.91;4972451;28;20222;-85
2023/09/30 06:17:51;;;;;;;8.02;4.82;;;;;;;-146.25;100.00;57403.91;4975457;28;20205;-86
2023/09/30 06:20:21;;;;;;;6.93;4.78;;;;;;;-146.25;100.00;57403.91;4992579;28;20213;-87
2023/09/30 06:23:04;;;;;;;10.70;5.70;;;;;;;-146.25;100.00;57403.91;4996292;28;20190;-87
2023/09/30 06:25:35;;;;;;;11.73;8.18;;;;;;;-146.25;100.00;57403.91;4994535;28;20652;-88
2023/09/30 06:28:03;;;;;;;9.20;5.20;;;;;;;-146.25;100.00;57403.91;4994163;28;20233;-86
2023/09/30 06:30:33;;;;;;;10.30;5.95;;;;;;;-146.25;100.00;57403.91;4991645;28;20205;-85
2023/09/30 06:33:01;;;;;;;5.93;5.38;;;;;;;-146.25;100.00;57403.91;4986868;28;20194;-86
2023/09/30 06:35:37;;;;;;;6.88;4.95;;;;;;;-146.25;100.00;57403.91;4984240;28;20224;-86
2023/09/30 06:38:06;;;;;;;9.35;4.82;;;;;;;-146.25;100.00;57403.91;4987759;28;20212;-84
2023/09/30 06:40:34;;;;;;;6.72;5.28;;;;;;;-146.25;100.00;57403.91;4972126;28;20202;-86
2023/09/30 06:43:02;;;;;;;7.13;4.30;;;;;;;-146.25;100.00;57403.91;4967950;28;20689;-84
2023/09/30 06:45:29;;;;;;;5.32;4.80;;;;;;;-146.25;100.00;57403.91;4968584;28;20686;-85
2023/09/30 06:47:57;;;;;;;12.60;4.78;;;;;;;-146.25;100.00;57403.91;4984752;28;20236;-85
2023/09/30 06:50:26;;;;;;;3.30;3.00;;;;;;;-146.25;100.00;57403.91;4988173;28;20213;-86
2023/09/30 06:52:58;;;;;;;4.10;3.70;;;;;;;-146.25;100.00;57403.91;4987454;28;20202;-86
2023/09/30 06:55:40;;;;;;;3.80;3.25;;;;;;;-146.25;100.00;57403.91;4998630;28;20757;-86
2023/09/30 06:58:10;;;;;;;2.95;2.83;;;;;;;-146.25;100.00;57403.91;4994350;28;20213;-86
2023/09/30 07:00:38;;;;;;;4.38;3.67;;;;;;;-146.25;100.00;57403.91;4990938;28;20639;-85
2023/09/30 07:03:07;;;;;;;13.18;3.92;;;;;;;-146.25;100.00;57403.91;4989922;28;20233;-85
2023/09/30 07:05:34;;;;;;;4.38;4.03;;;;;;;-146.25;100.00;57403.91;4989947;28;20277;-86
2023/09/30 07:08:02;;;;;;;3.38;3.08;;;;;;;-146.25;100.00;57403.91;4991052;28;20262;-84
2023/09/30 07:10:31;;;;;;;3.72;3.53;;;;;;;-146.25;100.00;57403.91;4990045;28;20201;-84
2023/09/30 07:12:58;;;;;;;4.25;3.95;;;;;;;-146.25;100.00;57403.91;4990420;28;20222;-84
2023/09/30 07:15:25;;;;;;;5.10;4.30;;;;;;;-146.25;100.00;57403.91;4989510;28;20220;-86
2023/09/30 07:17:54;;;;;;;7.85;5.05;;;;;;;-146.25;100.00;57403.91;4990376;28;20215;-86
2023/09/30 07:20:22;;;;;;;7.03;4.05;;;;;;;-146.25;100.00;57403.91;4990653;28;20283;-85
2023/09/30 07:22:50;;;;;;;7.53;3.90;;;;;;;-146.25;100.00;57403.91;4990554;28;20224;-86
2023/09/30 07:25:18;;;;;;;4.68;3.33;;;;;;;-146.25;100.00;57403.91;4996633;28;20208;-85
2023/09/30 07:27:50;;;;;;;6.07;3.10;;;;;;;-146.25;100.00;57403.91;4990538;28;20267;-86
2023/09/30 07:30:20;;;;;;;4.30;3.90;;;;;;;-146.25;100.00;57403.91;4971974;28;20710;-86
2023/09/30 07:32:48;;;;;;;6.93;3.97;;;;;;;-146.25;100.00;57403.91;4971351;28;20202;-85
2023/09/30 07:35:16;;;;;;;4.15;3.75;;;;;;;-146.25;100.00;57403.91;4970886;28;20240;-86
2023/09/30 07:37:43;;;;;;;3.33;3.03;;;;;;;-146.25;100.00;57403.91;4971323;28;20198;-86
2023/09/30 07:40:11;;;;;;;8.43;3.20;;;;;;;-146.25;100.00;57403.91;4972665;28;20206;-84
2023/09/30 07:42:42;;;;;;;3.50;3.30;;;;;;;-146.25;100.00;57403.91;4978854;28;20301;-84
2023/09/30 07:45:16;;;;;;;3.70;3.28;;;;;;;-146.25;100.00;57403.91;4969909;28;20616;-86
2023/09/30 07:47:46;;;;;;;5.57;3.42;;;;;;;-146.25;100.00;57403.91;4970748;28;20340;-85
2023/09/30 07:50:13;;;;;;;4.68;3.50;;;;;;;-146.25;100.00;57403.91;4970051;28;20453;-86
2023/09/30 07:52:42;;;;;;;4.57;3.60;;;;;;;-146.25;100.00;57403.91;4971708;28;20201;-86
2023/09/30 07:55:11;;;;;;;3.70;3.40;;;;;;;-146.25;100.00;57403.91;4970723;28;20213;-87
2023/09/30 07:57:43;;;;;;;5.82;3.38;;;;;;;-146.25;100.00;57403.91;4970252;28;20210;-85
2023/09/30 08:00:17;;;;;;;5.07;3.35;;;;;;;-146.25;100.00;57403.91;4971436;28;20676;-86
2023/09/30 08:02:45;;;;;;;4.18;3.30;;;;;;;-146.25;100.00;57403.91;4970721;28;20645;-84
2023/09/30 08:05:15;;;;;;;5.32;3.63;;;;;;;-146.25;100.00;57403.91;4969521;28;20615;-85
2023/09/30 08:07:43;;;;;;;4.82;3.08;;;;;;;-146.25;100.00;57403.91;4970945;28;20238;-85
2023/09/30 08:10:18;;;;;;;4.18;3.00;;;;;;;-146.25;100.00;57403.91;4970861;28;20212;-85
2023/09/30 08:12:50;;;;;;;5.63;3.53;;;;;;;-146.25;100.00;57403.91;4970554;28;20284;-87
2023/09/30 08:15:30;;;;;;;4.57;3.40;;;;;;;-146.25;100.00;57403.91;4970927;28;20273;-85
2023/09/30 08:18:02;;;;;;;3.53;3.25;;;;;;;-146.25;100.00;57403.91;4970792;28;20214;-86
2023/09/30 08:20:32;;;;;;;7.55;3.30;;;;;;;-146.25;100.00;57403.91;4970128;28;20205;-86
2023/09/30 08:22:59;;;;;;;7.70;3.10;;;;;;;-146.25;100.00;57403.91;4969937;28;20202;-84
2023/09/30 08:25:30;;;;;;;3.65;3.35;;;;;;;-146.25;100.00;57403.91;4969588;28;20683;-85
2023/09/30 08:28:12;;;;;;;5.90;3.80;;;;;;;-146.25;100.00;57403.91;4976067;28;20256;-85
2023/09/30 08:30:58;;;;;;;3.60;3.33;;;;;;;-146.25;100.00;57403.91;4990481;28;20194;-86
2023/09/30 08:33:30;;;;;;;4.88;4.40;;;;;;;-146.25;100.00;57403.91;4983413;28;20698;-88
2023/09/30 08:36:07;;;;;;;4.57;3.55;;;;;;;-146.25;100.00;57403.91;4972115;28;20300;-89
2023/09/30 08:38:35;;;;;;;3.47;3.28;;;;;;;-146.25;100.00;57403.91;4973007;28;20202;-88
2023/09/30 08:41:04;;;;;;;4.43;4.05;;;;;;;-146.25;100.00;57403.91;4971836;28;20277;-89
2023/09/30 08:43:32;;;;;;;4.53;4.13;;;;;;;-146.25;100.00;57403.91;4972973;28;20270;-88
2023/09/30 08:46:04;;;;;;;5.65;4.40;;;;;;;-146.25;100.00;57403.91;4978159;28;20263;-89
2023/09/30 08:48:34;;;;;;;4.18;3.67;;;;;;;-146.25;100.00;57403.91;4997127;28;20243;-88
2023/09/30 08:51:03;;;;;;;6.25;4.25;;;;;;;-146.25;100.00;57403.91;4999208;28;20225;-89
2023/09/30 08:53:38;;;;;;;6.50;3.85;;;;;;;-146.25;100.00;57403.91;4998475;28;20233;-87
2023/09/30 08:56:22;;;;;;;4.22;3.90;;;;;;;-146.25;100.00;57403.91;4994864;28;20213;-88
2023/09/30 08:58:51;;;;;;;7.45;4.50;;;;;;;-146.25;100.00;57403.91;4995720;28;20182;-88
2023/09/30 09:01:25;;;;;;;7.03;4.22;;;;;;;-146.25;100.00;57403.91;4994308;28;20522;-90
2023/09/30 09:04:01;;;;;;;6.07;4.70;;;;;;;-146.25;100.00;57403.91;4981670;28;20234;-88
2023/09/30 09:06:32;;;;;;;7.70;4.90;;;;;;;-146.25;100.00;57403.91;4975724;28;20208;-89
2023/09/30 09:09:18;;;;;;;6.20;4.43;;;;;;;-146.25;100.00;57403.91;4973826;28;20225;-88
2023/09/30 09:11:52;;;;;;;6.43;5.18;;;;;;;-146.25;100.00;57403.91;4972922;28;20216;-88
2023/09/30 09:14:40;;;;;;;9.70;4.72;;;;;;;-146.25;100.00;57403.91;4973778;28;20221;-88
2023/09/30 09:17:28;;;;;;;7.18;4.97;;;;;;;-146.25;100.00;57403.91;4974427;28;20205;-85
2023/09/30 09:20:01;;;;;;;5.30;4.80;;;;;;;-146.25;100.00;57403.91;4975243;28;20632;-87
2023/09/30 09:22:39;;;;;;;5.03;4.60;;;;;;;-146.25;100.00;57403.91;4973834;28;21001;-87
2023/09/30 09:25:10;;;;;;;8.75;5.65;;;;;;;-146.25;100.00;57403.91;4975016;28;20256;-90
2023/09/30 09:27:38;;;;;;;5.28;4.78;;;;;;;-146.25;100.00;57403.91;4974324;28;20190;-90
2023/09/30 09:30:23;;;;;;;4.90;4.28;;;;;;;-146.25;100.00;57403.91;4974780;28;20206;-90
2023/09/30 09:33:01;;;;;;;4.72;4.43;;;;;;;-146.25;100.00;57403.91;4973722;28;20388;-91
2023/09/30 09:35:30;;;;;;;6.38;4.50;;;;;;;-146.25;100.00;57403.91;4973834;28;20241;-89
2023/09/30 09:38:03;;;;;;;6.72;4.60;;;;;;;-146.25;100.00;57403.91;4973482;28;20293;-87
2023/09/30 09:40:34;;;;;;;4.90;4.28;;;;;;;-146.25;100.00;57403.91;4973090;28;20218;-88
2023/09/30 09:43:05;;;;;;;5.13;4.72;;;;;;;-146.25;100.00;57403.91;4973788;28;20222;-87
2023/09/30 09:45:35;;;;;;;4.65;3.95;;;;;;;-146.25;100.00;57403.91;4973306;28;20194;-86
2023/09/30 09:48:24;;;;;;;;;;;;;;;;;;;;;
2023/09/30 09:50:59;;;;;;;4.93;3.60;;;;;;;-146.25;100.00;57403.91;4974302;28;20207;-91
2023/09/30 09:53:30;;;;;;;5.07;4.05;;;;;;;-146.25;100.00;57403.91;4975183;28;20596;-91
2023/09/30 09:56:01;;;;;;;4.07;3.58;;;;;;;-146.25;100.00;57403.91;4973665;28;20602;-88
2023/09/30 09:58:33;;;;;;;4.28;3.92;;;;;;;-146.25;100.00;57403.91;4974348;28;20589;-89
2023/09/30 10:01:09;;;;;;;5.88;4.15;;;;;;;-146.25;100.00;57403.91;4978489;28;20230;-89
2023/09/30 10:03:44;;;;;;;4.15;3.42;;;;;;;-146.25;100.00;57403.91;4974343;28;20268;-88
2023/09/30 10:06:12;;;;;;;5.28;3.50;;;;;;;-146.25;100.00;57403.91;4974487;28;20214;-89
2023/09/30 10:08:47;;;;;;;3.47;3.28;;;;;;;-146.25;100.00;57403.91;4973504;28;20248;-89
2023/09/30 10:11:22;;;;;;;8.77;3.30;;;;;;;-146.25;100.00;57403.91;4971755;28;20206;-86
2023/09/30 10:13:56;;;;;;;6.45;3.38;;;;;;;-146.25;100.00;57403.91;4972645;28;20205;-86
2023/09/30 10:16:50;;;;;;;4.53;3.22;;;;;;;-146.25;100.00;57403.91;4972958;28;20256;-86
2023/09/30 10:19:23;;;;;;;3.58;3.30;;;;;;;-146.25;100.00;57403.91;4972775;28;20305;-86
2023/09/30 10:22:31;;;;;;;2.83;2.50;;;;;;;-146.25;100.00;57403.91;4973447;28;20217;-88
2023/09/30 10:25:01;;;;;;;3.85;3.10;;;;;;;-146.25;100.00;57403.91;4972365;28;20202;-89
2023/09/30 10:27:32;;;;;;;4.88;3.05;;;;;;;-146.25;100.00;57403.91;4973057;28;20210;-90
2023/09/30 10:30:05;;;;;;;8.65;2.85;;;;;;;-146.25;100.00;57403.91;4972396;28;20229;-86
2023/09/30 10:33:14;;;;;;;3.03;2.83;;;;;;;-146.25;100.00;57403.91;4972826;28;20210;-90
2023/09/30 10:35:56;;;;;;;2.63;2.42;;;;;;;-146.25;100.00;57403.91;4973208;28;20199;-89
2023/09/30 10:38:49;;;;;;;2.35;2.25;;;;;;;-146.25;100.00;57403.91;4978348;28;20298;-89
2023/09/30 10:41:56;;;;;;;2.80;2.60;;;;;;;-146.25;100.00;57403.91;4973164;28;20288;-89
2023/09/30 10:44:38;;;;;;;8.07;2.63;;;;;;;-146.25;100.00;57403.91;4973173;28;20284;-90
2023/09/30 10:47:41;;;;;;;2.15;2.03;;;;;;;-146.25;100.00;57403.91;4971913;28;20213;-86
2023/09/30 10:50:44;;;;;;;4.30;2.38;;;;;;;-146.25;100.00;57403.91;4972684;28;20695;-85
2023/09/30 10:53:23;;;;;;;2.28;2.17;;;;;;;-146.25;100.00;57403.91;4975795;28;20217;-86
2023/09/30 10:55:57;;;;;;;3.45;2.15;;;;;;;-146.25;100.00;57403.91;4971754;28;20222;-86
2023/09/30 10:58:40;;;;;;;4.43;2.25;;;;;;;-146.25;100.00;57403.91;4966661;28;20738;-87
2023/09/30 11:01:11;;;;;;;2.83;2.63;;;;;;;-146.25;100.00;57403.91;4961851;28;20449;-86
2023/09/30 11:03:41;;;;;;;2.20;2.10;;;;;;;-146.25;100.00;57403.91;4966395;28;21104;-88
2023/09/30 11:06:17;;;;;;;3.28;2.30;;;;;;;-146.25;100.00;57403.91;4971631;28;20743;-87
2023/09/30 11:08:55;;;;;;;2.78;2.60;;;;;;;-146.25;100.00;57403.91;4959071;28;20241;-90
2023/09/30 11:11:42;;;;;;;2.30;2.03;;;;;;;-146.25;100.00;57403.91;4974184;28;20234;-89
2023/09/30 11:14:32;;;;;;;2.35;2.22;;;;;;;-146.25;100.00;57403.91;4971446;28;20281;-86
2023/09/30 11:17:02;;;;;;;2.65;2.45;;;;;;;-146.25;100.00;57403.91;4971025;28;20711;-89
2023/09/30 11:19:36;;;;;;;2.70;2.50;;;;;;;-146.25;100.00;57403.91;4973290;28;20281;-90
2023/09/30 11:22:07;;;;;;;3.10;2.83;;;;;;;-146.25;100.00;57403.91;4972292;28;20221;-89
2023/09/30 11:24:42;;;;;;;5.75;2.50;;;;;;;-146.25;100.00;57403.91;4974235;28;20233;-90
2023/09/30 11:27:10;;;;;;;3.08;2.50;;;;;;;-146.25;100.00;57403.91;4974095;28;20193;-86
2023/09/30 11:29:51;;;;;;;2.63;2.47;;;;;;;-146.25;100.00;57403.91;4972913;28;20257;-88
2023/09/30 11:32:26;;;;;;;8.30;2.30;;;;;;;-146.25;100.00;57403.91;4973636;28;20209;-87